createdAt,value
2022-09-02T00:01:34.101Z,8.44
2022-09-02T00:06:37.904Z,8.40
2022-09-02T00:11:42.697Z,8.40
2022-09-02T00:16:50.783Z,8.44
2022-09-02T00:21:55.958Z,8.38
2022-09-02T00:26:59.190Z,8.27
2022-09-02T00:32:03.176Z,8.19
2022-09-02T00:37:06.418Z,8.13
2022-09-02T00:42:12.274Z,8.08
2022-09-02T00:47:15.606Z,7.99
2022-09-02T00:52:23.550Z,7.93
2022-09-02T00:57:31.711Z,7.87
2022-09-02T01:02:37.453Z,7.80
2022-09-02T01:07:42.539Z,7.73
2022-09-02T01:12:46.838Z,7.66
2022-09-02T01:17:52.740Z,7.64
2022-09-02T01:22:57.722Z,7.60
2022-09-02T01:28:05.929Z,7.52
2022-09-02T01:33:10.096Z,7.46
2022-09-02T01:38:13.690Z,7.42
2022-09-02T01:43:20.164Z,7.40
2022-09-02T01:48:25.294Z,7.39
2022-09-02T01:53:30.427Z,7.35
2022-09-02T01:58:33.878Z,7.30
2022-09-02T02:03:37.999Z,7.20
2022-09-02T02:08:42.557Z,7.10
2022-09-02T02:13:46.078Z,7.10
2022-09-02T02:18:50.028Z,7.15
2022-09-02T02:23:53.835Z,7.16
2022-09-02T02:28:57.128Z,7.09
2022-09-02T02:34:02.583Z,7.04
2022-09-02T02:39:09.679Z,7.11
2022-09-02T02:44:13.477Z,7.10
2022-09-02T02:49:17.016Z,7.06
2022-09-02T02:54:21.248Z,7.05
2022-09-02T02:59:25.703Z,7.08
2022-09-02T03:04:29.648Z,7.12
2022-09-02T03:09:33.751Z,7.10
2022-09-02T03:14:36.901Z,7.06
2022-09-02T03:19:46.609Z,7.03
2022-09-02T03:24:50.396Z,6.99
2022-09-02T03:29:53.770Z,6.95
2022-09-02T03:34:57.248Z,6.92
2022-09-02T03:40:02.152Z,6.88
2022-09-02T03:45:14.197Z,6.82
2022-09-02T03:50:19.501Z,6.75
2022-09-02T03:55:24.147Z,6.75
2022-09-02T04:00:32.924Z,6.73
2022-09-02T04:05:39.345Z,6.70
2022-09-02T04:10:42.779Z,6.71
2022-09-02T04:15:48.651Z,6.76
2022-09-02T04:20:52.808Z,6.79
2022-09-02T04:25:58.040Z,6.80
2022-09-02T04:31:05.456Z,6.96
2022-09-02T04:36:15.404Z,7.60
2022-09-02T04:47:32.627Z,11.29
2022-09-02T04:52:46.121Z,10.96
2022-09-02T04:57:50.407Z,12.54
2022-09-02T05:02:55.115Z,13.25
2022-09-02T05:07:58.801Z,12.63
2022-09-02T05:13:02.639Z,12.50
2022-09-02T05:18:06.284Z,12.24
2022-09-02T05:23:10.865Z,12.07
2022-09-02T05:28:17.349Z,12.57
2022-09-02T05:33:22.298Z,16.03
2022-09-02T05:38:25.777Z,20.22
2022-09-02T05:43:29.465Z,23.50
2022-09-02T05:48:53.034Z,25.90
2022-09-02T05:53:58.135Z,28.05
2022-09-02T05:59:01.951Z,29.68
2022-09-02T06:04:06.508Z,30.93
2022-09-02T06:09:13.063Z,31.90
2022-09-02T06:14:20.247Z,32.85
2022-09-02T06:19:25.263Z,33.76
2022-09-02T06:24:33.147Z,34.85
2022-09-02T06:29:42.110Z,35.01
2022-09-02T06:34:45.842Z,35.03
2022-09-02T06:39:49.103Z,35.17
2022-09-02T06:44:58.094Z,36.03
2022-09-02T06:50:02.249Z,36.17
2022-09-02T06:55:08.378Z,36.04
2022-09-02T07:00:13.447Z,36.36
2022-09-02T07:05:17.880Z,37.22
2022-09-02T07:10:22.852Z,37.56
2022-09-02T07:15:28.301Z,37.59
2022-09-02T07:20:32.309Z,38.28
2022-09-02T07:25:41.004Z,38.26
2022-09-02T07:30:44.754Z,38.16
2022-09-02T07:35:52.531Z,38.62
2022-09-02T07:40:57.117Z,38.80
2022-09-02T07:46:02.557Z,38.94
2022-09-02T07:51:07.467Z,39.36
2022-09-02T07:56:13.114Z,39.53
2022-09-02T08:01:19.998Z,38.63
2022-09-02T08:06:34.690Z,38.39
2022-09-02T08:11:39.186Z,38.56
2022-09-02T08:16:43.321Z,38.84
2022-09-02T08:21:46.525Z,39.02
2022-09-02T08:26:50.091Z,39.09
2022-09-02T08:31:54.167Z,38.86
2022-09-02T08:36:58.227Z,38.83
2022-09-02T08:42:08.278Z,38.97
2022-09-02T08:47:16.247Z,38.20
2022-09-02T08:52:27.846Z,37.97
2022-09-02T08:57:31.996Z,38.08
2022-09-02T09:02:49.322Z,37.40
2022-09-02T09:08:01.874Z,36.57
2022-09-02T09:13:20.003Z,36.51
2022-09-02T09:18:30.483Z,36.27
2022-09-02T09:23:36.136Z,36.16
2022-09-02T09:28:42.845Z,36.46
2022-09-02T09:34:00.368Z,35.82
2022-09-02T09:39:16.110Z,35.34
2022-09-02T09:44:41.524Z,35.66
2022-09-02T09:49:45.057Z,35.83
2022-09-02T09:55:04.304Z,35.43
2022-09-02T10:00:25.662Z,35.62
2022-09-02T10:05:33.422Z,34.88
2022-09-02T10:10:36.669Z,34.48
2022-09-02T10:15:47.990Z,33.99
2022-09-02T10:21:16.237Z,33.50
2022-09-02T10:26:33.162Z,32.90
2022-09-02T10:31:46.474Z,32.03
2022-09-02T10:37:08.246Z,32.11
2022-09-02T10:42:20.061Z,32.34
2022-09-02T10:47:32.093Z,32.64
2022-09-02T10:52:50.190Z,32.49
2022-09-02T10:58:00.014Z,33.26
2022-09-02T11:03:12.233Z,33.08
2022-09-02T11:08:27.268Z,32.87
2022-09-02T11:13:44.533Z,32.64
2022-09-02T11:18:58.165Z,32.40
2022-09-02T11:24:06.231Z,31.71
2022-09-02T11:29:17.761Z,30.71
2022-09-02T11:34:34.704Z,29.69
2022-09-02T11:40:11.575Z,28.72
2022-09-02T11:45:20.288Z,28.03
2022-09-02T11:50:39.486Z,27.41
2022-09-02T11:55:48.481Z,26.82
2022-09-02T12:01:24.375Z,26.38
2022-09-02T12:06:32.821Z,26.24
2022-09-02T12:11:46.484Z,26.16
2022-09-02T12:17:04.180Z,26.19
2022-09-02T12:22:33.004Z,25.70
2022-09-02T12:27:36.859Z,25.71
2022-09-02T12:33:08.774Z,25.66
2022-09-02T12:38:30.350Z,25.76
2022-09-02T12:43:47.370Z,26.05
2022-09-02T12:49:00.944Z,25.96
2022-09-02T12:54:06.078Z,26.33
2022-09-02T12:59:10.176Z,26.18
2022-09-02T13:04:30.151Z,25.11
2022-09-02T13:09:52.176Z,24.24
2022-09-02T13:15:04.675Z,23.58
2022-09-02T13:20:41.237Z,22.88
2022-09-02T13:26:19.137Z,22.40
2022-09-02T13:31:35.535Z,22.04
2022-09-02T13:36:42.949Z,22.62
2022-09-02T13:41:47.192Z,23.12
2022-09-02T13:46:52.212Z,23.38
2022-09-02T13:51:56.783Z,23.57
2022-09-02T13:57:03.467Z,23.58
2022-09-02T14:02:25.897Z,23.73
2022-09-02T14:07:36.436Z,23.88
2022-09-02T14:12:41.274Z,24.16
2022-09-02T14:17:44.461Z,24.50
2022-09-02T14:22:54.380Z,24.44
2022-09-02T14:28:00.108Z,24.12
2022-09-02T14:33:25.122Z,23.45
2022-09-02T14:38:32.904Z,22.66
2022-09-02T14:43:44.139Z,22.29
2022-09-02T14:48:55.662Z,21.95
2022-09-02T14:53:58.835Z,21.78
2022-09-02T14:59:02.158Z,21.62
2022-09-02T15:04:06.107Z,21.57
2022-09-02T15:09:09.634Z,21.61
2022-09-02T15:14:12.644Z,21.57
2022-09-02T15:19:16.006Z,21.54
2022-09-02T15:24:20.412Z,21.42
2022-09-02T15:29:28.821Z,21.36
2022-09-02T15:34:36.487Z,21.36
2022-09-02T15:39:40.315Z,21.28
2022-09-02T15:44:43.859Z,21.07
2022-09-02T15:49:46.961Z,20.87
2022-09-02T15:54:50.052Z,20.63
2022-09-02T15:59:53.438Z,20.43
2022-09-02T16:04:56.665Z,20.26
2022-09-02T16:10:03.479Z,20.12
2022-09-02T16:15:09.030Z,20.00
2022-09-02T16:20:12.818Z,19.84
2022-09-02T16:25:16.114Z,19.72
2022-09-02T16:30:20.664Z,19.60
2022-09-02T16:35:24.101Z,19.53
2022-09-02T16:40:27.737Z,19.48
2022-09-02T16:45:31.348Z,19.37
2022-09-02T16:50:34.595Z,19.18
2022-09-02T16:55:41.827Z,18.99
2022-09-02T17:00:45.446Z,18.78
2022-09-02T17:05:48.593Z,18.51
2022-09-02T17:10:51.774Z,18.25
2022-09-02T17:15:54.946Z,18.02
2022-09-02T17:21:16.982Z,17.73
2022-09-02T17:26:22.302Z,17.30
2022-09-02T17:31:27.458Z,16.99
2022-09-02T17:36:32.205Z,16.67
2022-09-02T17:41:54.506Z,16.36
2022-09-02T17:46:57.972Z,16.05
2022-09-02T17:52:01.951Z,15.76
2022-09-02T17:57:19.666Z,15.46
2022-09-02T18:02:37.409Z,15.21
2022-09-02T18:07:48.763Z,14.97
2022-09-02T18:12:56.144Z,14.73
2022-09-02T18:18:02.441Z,14.50
2022-09-02T18:23:30.576Z,14.29
2022-09-02T18:28:45.633Z,14.10
2022-09-02T18:34:07.471Z,13.93
2022-09-02T18:39:27.259Z,13.73
2022-09-02T18:44:39.145Z,13.56
2022-09-02T18:49:44.760Z,13.44
2022-09-02T18:54:53.733Z,13.33
2022-09-02T19:00:04.113Z,13.21
2022-09-02T19:05:11.238Z,13.08
2022-09-02T19:10:14.675Z,12.91
2022-09-02T19:15:18.553Z,12.73
2022-09-02T19:20:23.114Z,12.55
2022-09-02T19:25:30.363Z,12.42
2022-09-02T19:30:35.726Z,12.30
2022-09-02T19:35:45.761Z,12.17
2022-09-02T19:40:49.907Z,12.00
2022-09-02T19:45:55.613Z,11.89
2022-09-02T19:50:58.849Z,11.94
2022-09-02T19:56:02.962Z,12.08
2022-09-02T20:01:07.160Z,12.19
2022-09-02T20:06:12.824Z,12.27
2022-09-02T20:11:17.271Z,12.33
2022-09-02T20:16:23.358Z,12.33
2022-09-02T20:21:29.968Z,12.32
2022-09-02T20:26:49.428Z,12.29
2022-09-02T20:32:04.035Z,12.27
2022-09-02T20:37:19.332Z,12.25
2022-09-02T20:42:40.417Z,12.19
2022-09-02T20:47:54.880Z,12.14
2022-09-02T20:53:16.068Z,12.08
2022-09-02T20:58:31.157Z,12.00
2022-09-02T21:03:49.569Z,11.89
2022-09-02T21:09:01.380Z,11.65
2022-09-02T21:14:13.023Z,11.40
2022-09-02T21:19:29.886Z,11.21
2022-09-02T21:24:39.421Z,11.01
2022-09-02T21:29:50.883Z,10.81
2022-09-02T21:34:57.869Z,10.62
2022-09-02T21:40:06.728Z,10.46
2022-09-02T21:45:22.668Z,10.32
2022-09-02T21:50:37.128Z,10.25
2022-09-02T21:55:53.712Z,10.14
2022-09-02T22:01:04.586Z,10.03
2022-09-02T22:06:16.441Z,9.91
2022-09-02T22:11:31.998Z,9.81
2022-09-02T22:16:48.098Z,9.74
2022-09-02T22:21:56.094Z,9.68
2022-09-02T22:27:05.835Z,9.64
2022-09-02T22:32:13.542Z,9.53
2022-09-02T22:37:23.800Z,9.49
2022-09-02T22:42:33.661Z,9.48
2022-09-02T22:48:18.725Z,9.47
2022-09-02T22:53:22.155Z,9.39
2022-09-02T22:59:15.241Z,9.29
2022-09-02T23:04:34.085Z,9.21
2022-09-02T23:10:27.002Z,9.19
2022-09-02T23:15:40.958Z,9.13
2022-09-02T23:20:52.942Z,9.02
2022-09-02T23:26:10.621Z,8.91
2022-09-02T23:31:31.184Z,8.84
2022-09-02T23:36:47.445Z,8.74
2022-09-02T23:41:56.866Z,8.64
2022-09-02T23:47:19.454Z,8.50
2022-09-02T23:52:34.597Z,8.38
2022-09-02T23:58:03.121Z,8.29
